createdAt,value
2017-01-31T00:00:18.716Z,24.27
2017-01-31T00:00:48.760Z,24.08
2017-01-31T00:01:18.784Z,23.79
2017-01-31T00:01:48.811Z,23.97
2017-01-31T00:02:19.014Z,23.97
2017-01-31T00:02:48.880Z,24.27
2017-01-31T00:03:18.921Z,23.89
2017-01-31T00:03:48.943Z,24.27
2017-01-31T00:04:19.150Z,24.37
2017-01-31T00:04:49.013Z,24.46
2017-01-31T00:05:19.047Z,24.08
2017-01-31T00:05:49.083Z,24.35
2017-01-31T00:06:19.114Z,24.27
2017-01-31T00:06:49.145Z,24.55
2017-01-31T00:07:19.179Z,24.08
2017-01-31T00:07:49.209Z,24.27
2017-01-31T00:08:19.254Z,24.26
2017-01-31T00:08:49.309Z,24.26
2017-01-31T00:09:19.314Z,24.08
2017-01-31T00:09:49.345Z,24.07
2017-01-31T00:10:19.388Z,24.26
2017-01-31T00:10:49.424Z,24.35
2017-01-31T00:11:19.446Z,24.63
2017-01-31T00:11:49.486Z,24.74
2017-01-31T00:12:19.513Z,24.63
2017-01-31T00:12:49.548Z,24.65
2017-01-31T00:13:19.579Z,24.73
2017-01-31T00:13:49.816Z,24.73
2017-01-31T00:14:19.647Z,25.11
2017-01-31T00:14:49.683Z,24.84
2017-01-31T00:15:19.890Z,25.02
2017-01-31T00:15:49.748Z,24.65
2017-01-31T00:16:19.783Z,24.73
2017-01-31T00:16:49.821Z,24.93
2017-01-31T00:17:20.023Z,24.54
2017-01-31T00:17:50.058Z,24.37
2017-01-31T00:18:19.916Z,24.92
2017-01-31T00:18:49.951Z,24.63
2017-01-31T00:19:19.980Z,24.46
2017-01-31T00:19:50.020Z,25.11
2017-01-31T00:20:20.224Z,24.92
2017-01-31T00:20:50.081Z,24.73
2017-01-31T00:21:20.115Z,24.73
2017-01-31T00:21:50.153Z,24.82
2017-01-31T00:22:20.184Z,24.73
2017-01-31T00:22:50.211Z,25.11
2017-01-31T00:23:20.253Z,25.11
2017-01-31T00:23:50.294Z,24.82
2017-01-31T00:24:20.316Z,24.44
2017-01-31T00:24:50.350Z,25.11
2017-01-31T00:25:20.381Z,24.92
2017-01-31T00:25:50.416Z,24.73
2017-01-31T00:26:20.456Z,25.21
2017-01-31T00:26:50.482Z,24.73
2017-01-31T00:27:20.516Z,25.3
2017-01-31T00:27:50.720Z,25.21
2017-01-31T00:28:20.775Z,24.92
2017-01-31T00:28:50.616Z,25.02
2017-01-31T00:29:20.651Z,24.82
2017-01-31T00:29:50.682Z,24.92
2017-01-31T00:30:20.716Z,24.82
2017-01-31T00:30:50.753Z,24.92
2017-01-31T00:31:20.795Z,25.3
2017-01-31T00:31:50.822Z,24.82
2017-01-31T00:32:20.852Z,24.84
2017-01-31T00:32:51.061Z,24.73
2017-01-31T00:33:20.925Z,24.82
2017-01-31T00:33:50.952Z,25.21
2017-01-31T00:34:20.994Z,25.11
2017-01-31T00:34:51.017Z,24.82
2017-01-31T00:35:21.225Z,24.82
2017-01-31T00:35:51.088Z,24.73
2017-01-31T00:36:21.122Z,24.82
2017-01-31T00:36:51.152Z,24.92
2017-01-31T00:37:21.184Z,24.92
2017-01-31T00:37:51.574Z,25.12
2017-01-31T00:38:21.253Z,25.02
2017-01-31T00:38:51.288Z,24.93
2017-01-31T00:39:21.325Z,25.21
2017-01-31T00:39:51.526Z,24.84
2017-01-31T00:40:21.409Z,25.31
2017-01-31T00:40:51.452Z,24.82
2017-01-31T00:41:21.452Z,24.73
2017-01-31T00:41:51.487Z,24.82
2017-01-31T00:42:21.524Z,24.73
2017-01-31T00:42:51.560Z,24.44
2017-01-31T00:43:21.585Z,24.44
2017-01-31T00:43:51.617Z,24.73
2017-01-31T00:44:21.654Z,24.82
2017-01-31T00:44:51.689Z,24.92
2017-01-31T00:45:21.722Z,25.02
2017-01-31T00:45:51.756Z,25.11
2017-01-31T00:46:21.790Z,25.02
2017-01-31T00:46:51.824Z,25.4
2017-01-31T00:47:21.857Z,24.82
2017-01-31T00:47:51.888Z,25.02
2017-01-31T00:48:21.918Z,25.3
2017-01-31T00:48:51.953Z,24.92
2017-01-31T00:49:21.988Z,24.92
2017-01-31T00:49:52.018Z,24.92
2017-01-31T00:50:22.054Z,25.11
2017-01-31T00:50:52.089Z,25.02
2017-01-31T00:51:22.119Z,25.02
2017-01-31T00:51:52.151Z,25.11
2017-01-31T00:52:22.208Z,25.11
2017-01-31T00:52:52.217Z,24.82
2017-01-31T00:53:22.252Z,25.02
2017-01-31T00:53:52.459Z,24.73
2017-01-31T00:54:22.326Z,25.11
2017-01-31T00:54:52.356Z,25.3
2017-01-31T00:55:22.388Z,24.92
2017-01-31T00:55:52.420Z,25.21
2017-01-31T00:56:22.453Z,25.3
2017-01-31T00:56:52.487Z,25.11
2017-01-31T00:57:22.520Z,25.02
2017-01-31T00:57:52.552Z,25.11
2017-01-31T00:58:22.593Z,25.11
2017-01-31T00:58:52.621Z,25.11
2017-01-31T00:59:22.656Z,25.11
2017-01-31T00:59:52.689Z,25.02
2017-01-31T01:00:22.891Z,25.02
2017-01-31T01:00:52.755Z,25.11
2017-01-31T01:01:22.786Z,25.4
2017-01-31T01:01:52.822Z,25.4
2017-01-31T01:02:23.029Z,25.3
2017-01-31T01:02:52.890Z,25.3
2017-01-31T01:03:22.919Z,25.21
2017-01-31T01:03:52.958Z,25.4
2017-01-31T01:04:22.990Z,25.21
2017-01-31T01:04:53.190Z,25.3
2017-01-31T01:05:23.058Z,25.21
2017-01-31T01:05:53.291Z,25.21
2017-01-31T01:06:23.311Z,25.3
2017-01-31T01:06:53.333Z,25.02
2017-01-31T01:07:23.195Z,25.4
2017-01-31T01:07:53.562Z,25.3
2017-01-31T01:08:23.267Z,25.3
2017-01-31T01:08:53.633Z,25.02
2017-01-31T01:09:23.334Z,25.4
2017-01-31T01:09:53.352Z,25.3
2017-01-31T01:10:23.396Z,25.68
2017-01-31T01:10:53.621Z,25.59
2017-01-31T01:11:23.459Z,25.3
2017-01-31T01:11:53.493Z,25.3
2017-01-31T01:12:23.522Z,25.11
2017-01-31T01:12:53.556Z,25.11
2017-01-31T01:13:23.585Z,25.02
2017-01-31T01:13:53.623Z,25.21
2017-01-31T01:14:23.828Z,25.4
2017-01-31T01:14:53.698Z,25.21
2017-01-31T01:15:23.765Z,25.11
2017-01-31T01:15:53.758Z,25.02
2017-01-31T01:16:23.790Z,25.49
2017-01-31T01:16:53.825Z,25.59
2017-01-31T01:17:24.028Z,25.11
2017-01-31T01:17:53.887Z,25.11
2017-01-31T01:18:23.922Z,25.02
2017-01-31T01:18:53.959Z,25.3
2017-01-31T01:19:23.998Z,25.4
2017-01-31T01:19:54.021Z,25.21
2017-01-31T01:20:24.056Z,25.4
2017-01-31T01:20:54.098Z,24.92
2017-01-31T01:21:24.126Z,25.21
2017-01-31T01:21:54.155Z,25.3
2017-01-31T01:22:24.189Z,25.11
2017-01-31T01:22:54.224Z,25.4
2017-01-31T01:23:24.257Z,25.21
2017-01-31T01:23:54.299Z,25.02
2017-01-31T01:24:24.357Z,25.11
2017-01-31T01:24:54.366Z,24.82
2017-01-31T01:25:24.389Z,24.54
2017-01-31T01:25:54.422Z,24.82
2017-01-31T01:26:24.456Z,24.54
2017-01-31T01:26:54.492Z,24.35
2017-01-31T01:27:24.524Z,24.44
2017-01-31T01:27:54.565Z,24.92
2017-01-31T01:28:24.592Z,24.82
2017-01-31T01:28:54.653Z,24.63
2017-01-31T01:29:24.656Z,24.44
2017-01-31T01:29:54.864Z,24.92
2017-01-31T01:30:24.722Z,25.11
2017-01-31T01:30:54.757Z,24.82
2017-01-31T01:31:24.791Z,25.21
2017-01-31T01:31:54.826Z,24.92
2017-01-31T01:32:24.856Z,25.49
2017-01-31T01:32:54.901Z,25.49
2017-01-31T01:33:24.940Z,25.3
2017-01-31T01:33:54.960Z,25.3
2017-01-31T01:34:24.994Z,24.92
2017-01-31T01:34:55.020Z,25.49
2017-01-31T01:35:25.056Z,25.59
2017-01-31T01:35:55.091Z,25.21
2017-01-31T01:36:25.130Z,25.49
2017-01-31T01:36:55.156Z,25.68
2017-01-31T01:37:25.219Z,25.02
2017-01-31T01:37:55.223Z,25.3
2017-01-31T01:38:25.256Z,25.49
2017-01-31T01:38:55.302Z,25.3
2017-01-31T01:39:25.495Z,25.3
2017-01-31T01:39:55.361Z,25.02
2017-01-31T01:40:25.389Z,25.02
2017-01-31T01:40:55.598Z,25.11
2017-01-31T01:41:25.459Z,25.02
2017-01-31T01:41:55.493Z,25.11
2017-01-31T01:42:25.871Z,25.11
2017-01-31T01:42:55.561Z,25.21
2017-01-31T01:43:25.592Z,25.11
2017-01-31T01:43:55.626Z,25.21
2017-01-31T01:44:25.659Z,25.02
2017-01-31T01:44:55.695Z,25.3
2017-01-31T01:45:25.724Z,25.3
2017-01-31T01:45:55.763Z,25.3
2017-01-31T01:46:25.795Z,25.21
2017-01-31T01:46:55.825Z,25.21
2017-01-31T01:47:25.857Z,25.11
2017-01-31T01:47:55.891Z,25.02
2017-01-31T01:48:25.933Z,25.4
2017-01-31T01:48:56.165Z,25.21
2017-01-31T01:49:25.993Z,25.11
2017-01-31T01:49:56.027Z,25.02
2017-01-31T01:50:26.061Z,25.02
2017-01-31T01:50:56.091Z,25.02
2017-01-31T01:51:26.129Z,24.92
2017-01-31T01:51:56.331Z,25.21
2017-01-31T01:52:26.193Z,24.92
2017-01-31T01:52:56.396Z,25.3
2017-01-31T01:53:26.263Z,24.82
2017-01-31T01:53:56.306Z,25.11
2017-01-31T01:54:26.328Z,25.02
2017-01-31T01:54:56.359Z,24.73
2017-01-31T01:55:26.411Z,25.02
2017-01-31T01:55:56.423Z,25.02
2017-01-31T01:56:26.459Z,24.92
2017-01-31T01:56:56.493Z,24.82
2017-01-31T01:57:26.523Z,24.92
2017-01-31T01:57:56.562Z,24.63
2017-01-31T01:58:26.764Z,24.73
2017-01-31T01:58:56.628Z,25.02
2017-01-31T01:59:26.664Z,25.21
2017-01-31T01:59:56.695Z,25.3
2017-01-31T02:00:26.760Z,25.02
2017-01-31T02:00:56.760Z,25.11
2017-01-31T02:01:26.801Z,24.92
2017-01-31T02:01:57.009Z,25.11
2017-01-31T02:02:26.860Z,25.11
2017-01-31T02:02:56.897Z,25.3
2017-01-31T02:03:26.933Z,25.21
2017-01-31T02:03:56.960Z,25.21
2017-01-31T02:04:26.999Z,25.3
2017-01-31T02:04:57.027Z,24.92
2017-01-31T02:05:27.092Z,25.4
2017-01-31T02:05:57.097Z,25.49
2017-01-31T02:06:27.129Z,25.11
2017-01-31T02:06:57.332Z,25.11
2017-01-31T02:07:27.200Z,25.02
2017-01-31T02:07:57.232Z,25.02
2017-01-31T02:08:27.262Z,25.02
2017-01-31T02:08:57.299Z,25.11
2017-01-31T02:09:27.329Z,25.3
2017-01-31T02:09:57.369Z,25.49
2017-01-31T02:10:27.406Z,25.21
2017-01-31T02:10:57.431Z,25.4
2017-01-31T02:11:27.463Z,25.49
2017-01-31T02:11:57.493Z,25.4
2017-01-31T02:12:27.531Z,25.4
2017-01-31T02:12:57.566Z,25.4
2017-01-31T02:13:27.601Z,25.4
2017-01-31T02:13:57.664Z,25.78
2017-01-31T02:14:27.661Z,25.49
2017-01-31T02:14:57.705Z,25.49
2017-01-31T02:15:27.729Z,25.21
2017-01-31T02:15:57.765Z,25.59
2017-01-31T02:16:27.823Z,25.3
2017-01-31T02:16:57.829Z,25.4
2017-01-31T02:17:28.033Z,25.4
2017-01-31T02:17:57.895Z,25.59
2017-01-31T02:18:28.097Z,25.68
2017-01-31T02:18:57.968Z,25.49
2017-01-31T02:19:28.001Z,25.49
2017-01-31T02:19:58.037Z,25.4
2017-01-31T02:20:28.065Z,25.21
2017-01-31T02:20:58.095Z,25.59
2017-01-31T02:21:28.130Z,25.11
2017-01-31T02:21:58.163Z,25.59
2017-01-31T02:22:28.195Z,25.4
2017-01-31T02:22:58.397Z,25.21
2017-01-31T02:23:28.263Z,25.11
2017-01-31T02:23:58.469Z,25.3
2017-01-31T02:24:28.325Z,25.3
2017-01-31T02:24:58.534Z,25.3
2017-01-31T02:25:28.402Z,25.49
2017-01-31T02:25:58.599Z,25.4
2017-01-31T02:26:28.473Z,25.4
2017-01-31T02:26:58.497Z,25.4
2017-01-31T02:27:28.529Z,25.3
2017-01-31T02:27:58.736Z,25.21
2017-01-31T02:28:28.595Z,25.3
2017-01-31T02:28:58.636Z,25.4
2017-01-31T02:29:28.668Z,25.4
2017-01-31T02:29:58.701Z,25.11
2017-01-31T02:30:28.728Z,25.3
2017-01-31T02:30:58.764Z,25.68
2017-01-31T02:31:28.802Z,25.59
2017-01-31T02:31:59.001Z,25.3
2017-01-31T02:32:28.865Z,25.4
2017-01-31T02:32:58.901Z,25.3
2017-01-31T02:33:29.105Z,25.4
2017-01-31T02:33:58.969Z,25.4
2017-01-31T02:34:28.998Z,25.3
2017-01-31T02:34:59.039Z,25.4
2017-01-31T02:35:29.073Z,25.4
2017-01-31T02:35:59.099Z,25.59
2017-01-31T02:36:29.138Z,25.68
2017-01-31T02:36:59.168Z,25.49
2017-01-31T02:37:29.196Z,25.59
2017-01-31T02:37:59.230Z,25.59
2017-01-31T02:38:29.274Z,25.02
2017-01-31T02:38:59.295Z,25.59
2017-01-31T02:39:29.327Z,25.21
2017-01-31T02:39:59.367Z,25.4
2017-01-31T02:40:29.396Z,25.49
2017-01-31T02:40:59.443Z,25.3
2017-01-31T02:41:29.464Z,25.4
2017-01-31T02:41:59.499Z,25.4
2017-01-31T02:42:29.529Z,25.11
2017-01-31T02:42:59.568Z,25.02
2017-01-31T02:43:29.598Z,25.02
2017-01-31T02:43:59.802Z,25.21
2017-01-31T02:44:29.666Z,25.59
2017-01-31T02:44:59.699Z,25.21
2017-01-31T02:45:29.733Z,25.68
2017-01-31T02:45:59.939Z,25.49
2017-01-31T02:46:29.799Z,25.59
2017-01-31T02:47:00.002Z,25.78
2017-01-31T02:47:29.870Z,25.3
2017-01-31T02:47:59.897Z,25.4
2017-01-31T02:48:30.102Z,25.59
2017-01-31T02:48:59.964Z,25.59
2017-01-31T02:49:30.002Z,25.4
2017-01-31T02:50:00.033Z,25.49
2017-01-31T02:50:30.071Z,25.3
2017-01-31T02:51:00.098Z,25.3
2017-01-31T02:51:30.135Z,25.68
2017-01-31T02:52:00.166Z,25.3
2017-01-31T02:52:30.204Z,25.4
2017-01-31T02:53:00.236Z,25.59
2017-01-31T02:53:30.277Z,25.4
2017-01-31T02:54:00.304Z,25.3
2017-01-31T02:54:30.331Z,25.4
2017-01-31T02:55:00.396Z,25.4
2017-01-31T02:55:30.400Z,25.49
2017-01-31T02:56:00.431Z,25.49
2017-01-31T02:56:30.469Z,25.59
2017-01-31T02:57:00.498Z,25.4
2017-01-31T02:57:30.532Z,25.49
2017-01-31T02:58:00.564Z,25.59
2017-01-31T02:58:30.771Z,25.49
2017-01-31T02:59:00.636Z,25.49
2017-01-31T02:59:30.835Z,25.59
2017-01-31T03:00:00.703Z,25.4
2017-01-31T03:00:31.083Z,25.49
2017-01-31T03:01:00.940Z,25.3
2017-01-31T03:01:30.799Z,25.3
2017-01-31T03:02:00.831Z,25.49
2017-01-31T03:02:30.870Z,25.68
2017-01-31T03:03:00.900Z,25.4
2017-01-31T03:03:30.933Z,25.4
2017-01-31T03:04:00.967Z,25.68
2017-01-31T03:04:31.002Z,25.78
2017-01-31T03:05:01.041Z,25.3
2017-01-31T03:05:31.073Z,25.87
2017-01-31T03:06:01.453Z,25.96
2017-01-31T03:06:31.162Z,26.06
2017-01-31T03:07:01.167Z,25.96
2017-01-31T03:07:31.199Z,25.68
2017-01-31T03:08:01.407Z,25.68
2017-01-31T03:08:31.269Z,25.68
2017-01-31T03:09:01.306Z,25.87
2017-01-31T03:09:31.340Z,25.59
2017-01-31T03:10:01.367Z,25.68
2017-01-31T03:10:31.402Z,25.49
2017-01-31T03:11:01.604Z,25.49
2017-01-31T03:11:31.467Z,25.49
2017-01-31T03:12:01.672Z,25.49
2017-01-31T03:12:31.541Z,25.4
2017-01-31T03:13:01.575Z,25.49
2017-01-31T03:13:31.601Z,25.68
2017-01-31T03:14:01.634Z,25.4
2017-01-31T03:14:31.673Z,25.68
2017-01-31T03:15:01.702Z,25.49
2017-01-31T03:15:31.734Z,25.59
2017-01-31T03:16:01.767Z,26.06
2017-01-31T03:16:31.800Z,25.4
2017-01-31T03:17:01.837Z,25.78
2017-01-31T03:17:31.866Z,25.59
2017-01-31T03:18:01.909Z,25.49
2017-01-31T03:18:31.934Z,25.78
2017-01-31T03:19:02.142Z,25.49
2017-01-31T03:19:32.001Z,25.96
2017-01-31T03:20:02.041Z,26.06
2017-01-31T03:20:32.082Z,26.16
2017-01-31T03:21:02.111Z,26.06
2017-01-31T03:21:32.148Z,26.06
2017-01-31T03:22:02.169Z,26.25
2017-01-31T03:22:32.200Z,25.78
2017-01-31T03:23:02.236Z,25.49
2017-01-31T03:23:32.272Z,25.59
2017-01-31T03:24:02.482Z,25.3
2017-01-31T03:24:32.336Z,25.49
2017-01-31T03:25:02.710Z,25.68
2017-01-31T03:25:32.404Z,25.68
2017-01-31T03:26:02.449Z,25.87
2017-01-31T03:26:32.472Z,26.06
2017-01-31T03:27:02.676Z,25.87
2017-01-31T03:27:32.534Z,26.16
2017-01-31T03:28:02.570Z,26.16
2017-01-31T03:28:32.775Z,26.35
2017-01-31T03:29:02.641Z,26.35
2017-01-31T03:29:32.667Z,26.06
2017-01-31T03:30:02.879Z,26.25
2017-01-31T03:30:32.736Z,26.06
2017-01-31T03:31:02.766Z,25.87
2017-01-31T03:31:32.804Z,26.06
2017-01-31T03:32:02.835Z,26.25
2017-01-31T03:32:32.869Z,26.16
2017-01-31T03:33:02.907Z,26.35
2017-01-31T03:33:32.935Z,26.06
2017-01-31T03:34:02.973Z,25.59
2017-01-31T03:34:33.008Z,26.06
2017-01-31T03:35:03.210Z,25.87
2017-01-31T03:35:33.069Z,25.59
2017-01-31T03:36:03.273Z,25.96
2017-01-31T03:36:33.136Z,25.78
2017-01-31T03:37:03.343Z,26.06
2017-01-31T03:37:33.207Z,25.78
2017-01-31T03:38:03.244Z,25.68
2017-01-31T03:38:33.443Z,25.59
2017-01-31T03:39:03.301Z,26.06
2017-01-31T03:39:33.339Z,25.96
2017-01-31T03:40:03.371Z,26.16
2017-01-31T03:40:33.407Z,25.96
2017-01-31T03:41:03.438Z,26.16
2017-01-31T03:41:33.468Z,26.25
2017-01-31T03:42:03.504Z,26.35
2017-01-31T03:42:33.544Z,26.06
2017-01-31T03:43:03.566Z,26.16
2017-01-31T03:43:33.605Z,26.25
2017-01-31T03:44:03.637Z,26.25
2017-01-31T03:44:33.670Z,26.25
2017-01-31T03:45:03.704Z,26.06
2017-01-31T03:45:33.737Z,26.25
2017-01-31T03:46:03.775Z,26.35
2017-01-31T03:46:33.813Z,26.35
2017-01-31T03:47:04.008Z,26.06
2017-01-31T03:47:33.873Z,26.35
2017-01-31T03:48:03.901Z,26.44
2017-01-31T03:48:33.934Z,26.35
2017-01-31T03:49:03.969Z,26.25
2017-01-31T03:49:34.002Z,26.35
2017-01-31T03:50:04.041Z,26.25
2017-01-31T03:50:34.078Z,26.25
2017-01-31T03:51:04.098Z,26.35
2017-01-31T03:51:34.140Z,26.25
2017-01-31T03:52:04.169Z,26.16
2017-01-31T03:52:34.206Z,26.25
2017-01-31T03:53:04.240Z,26.25
2017-01-31T03:53:34.445Z,26.73
2017-01-31T03:54:04.313Z,26.54
2017-01-31T03:54:34.335Z,26.54
2017-01-31T03:55:04.368Z,26.82
2017-01-31T03:55:34.573Z,26.54
2017-01-31T03:56:04.435Z,26.35
2017-01-31T03:56:34.465Z,26.35
2017-01-31T03:57:04.503Z,26.16
2017-01-31T03:57:34.537Z,26.35
2017-01-31T03:58:04.566Z,26.16
2017-01-31T03:58:34.603Z,26.35
2017-01-31T03:59:04.634Z,26.16
2017-01-31T03:59:34.670Z,26.25
2017-01-31T04:00:04.703Z,26.54
2017-01-31T04:00:34.734Z,26.06
2017-01-31T04:01:04.776Z,26.16
2017-01-31T04:01:34.803Z,26.16
2017-01-31T04:02:04.836Z,26.54
2017-01-31T04:02:34.878Z,26.25
2017-01-31T04:03:04.905Z,26.25
2017-01-31T04:03:35.108Z,26.16
2017-01-31T04:04:05.153Z,26.25
2017-01-31T04:04:35.006Z,26.35
2017-01-31T04:05:05.036Z,26.25
2017-01-31T04:05:35.071Z,26.25
2017-01-31T04:06:05.113Z,26.54
2017-01-31T04:06:35.314Z,26.73
2017-01-31T04:07:05.171Z,26.54
2017-01-31T04:07:35.205Z,26.25
2017-01-31T04:08:05.235Z,26.35
2017-01-31T04:08:35.442Z,26.35
2017-01-31T04:09:05.314Z,26.44
2017-01-31T04:09:35.509Z,26.35
2017-01-31T04:10:05.369Z,26.35
2017-01-31T04:10:35.405Z,26.25
2017-01-31T04:11:05.439Z,26.73
2017-01-31T04:11:35.641Z,26.16
2017-01-31T04:12:05.501Z,26.35
2017-01-31T04:12:35.542Z,26.25
2017-01-31T04:13:05.578Z,26.16
2017-01-31T04:13:35.601Z,26.16
2017-01-31T04:14:05.639Z,26.35
2017-01-31T04:14:35.671Z,26.35
2017-01-31T04:15:05.715Z,26.44
2017-01-31T04:15:35.732Z,26.35
2017-01-31T04:16:05.770Z,26.25
2017-01-31T04:16:35.802Z,26.54
2017-01-31T04:17:05.844Z,26.64
2017-01-31T04:17:35.869Z,26.44
2017-01-31T04:18:06.076Z,26.64
2017-01-31T04:18:35.936Z,26.64
2017-01-31T04:19:05.972Z,26.73
2017-01-31T04:19:36.003Z,26.82
2017-01-31T04:20:06.034Z,26.82
2017-01-31T04:20:36.071Z,26.25
2017-01-31T04:21:06.103Z,26.54
2017-01-31T04:21:36.136Z,26.64
2017-01-31T04:22:06.336Z,26.25
2017-01-31T04:22:36.205Z,26.44
2017-01-31T04:23:06.236Z,26.25
2017-01-31T04:23:36.277Z,26.54
2017-01-31T04:24:06.326Z,26.73
2017-01-31T04:24:36.337Z,26.44
2017-01-31T04:25:06.372Z,26.64
2017-01-31T04:25:36.580Z,26.25
2017-01-31T04:26:06.437Z,26.25
2017-01-31T04:26:36.470Z,26.64
2017-01-31T04:27:06.672Z,26.73
2017-01-31T04:27:36.724Z,26.64
2017-01-31T04:28:06.573Z,26.73
2017-01-31T04:28:36.604Z,26.82
2017-01-31T04:29:06.638Z,26.64
2017-01-31T04:29:36.672Z,26.82
2017-01-31T04:30:06.706Z,26.64
2017-01-31T04:30:36.733Z,26.44
2017-01-31T04:31:06.768Z,26.64
2017-01-31T04:31:36.805Z,26.64
2017-01-31T04:32:07.008Z,26.35
2017-01-31T04:32:36.868Z,26.54
2017-01-31T04:33:06.910Z,26.35
2017-01-31T04:33:37.126Z,26.54
2017-01-31T04:34:06.974Z,26.64
2017-01-31T04:34:37.182Z,26.82
2017-01-31T04:35:07.045Z,26.92
2017-01-31T04:35:37.079Z,26.92
2017-01-31T04:36:07.120Z,26.82
2017-01-31T04:36:37.307Z,26.54
2017-01-31T04:37:07.197Z,26.73
2017-01-31T04:37:37.205Z,27.11
2017-01-31T04:38:07.300Z,26.82
2017-01-31T04:38:37.275Z,27.2
2017-01-31T04:39:07.343Z,26.73
2017-01-31T04:39:37.337Z,26.73
2017-01-31T04:40:07.380Z,27.01
2017-01-31T04:40:37.402Z,26.82
2017-01-31T04:41:07.684Z,26.64
2017-01-31T04:41:37.474Z,26.73
2017-01-31T04:42:07.503Z,26.64
2017-01-31T04:42:37.546Z,26.64
2017-01-31T04:43:07.572Z,26.54
2017-01-31T04:43:37.817Z,26.64
2017-01-31T04:44:07.647Z,26.82
2017-01-31T04:44:37.669Z,26.54
2017-01-31T04:45:07.710Z,26.64
2017-01-31T04:45:37.738Z,26.44
2017-01-31T04:46:07.797Z,26.64
2017-01-31T04:46:37.975Z,26.44
2017-01-31T04:47:08.011Z,26.64
2017-01-31T04:47:37.868Z,26.54
2017-01-31T04:48:07.908Z,26.64
2017-01-31T04:48:37.937Z,26.44
2017-01-31T04:49:07.972Z,26.44
2017-01-31T04:49:38.004Z,26.92
2017-01-31T04:50:08.209Z,26.92
2017-01-31T04:50:38.071Z,26.82
2017-01-31T04:51:08.113Z,27.01
2017-01-31T04:51:38.309Z,26.82
2017-01-31T04:52:08.171Z,26.82
2017-01-31T04:52:38.371Z,26.35
2017-01-31T04:53:08.240Z,26.25
2017-01-31T04:53:38.277Z,26.44
2017-01-31T04:54:08.532Z,26.35
2017-01-31T04:54:38.339Z,26.35
2017-01-31T04:55:08.368Z,26.44
2017-01-31T04:55:38.402Z,26.92
2017-01-31T04:56:08.462Z,26.35
2017-01-31T04:56:38.646Z,26.35
2017-01-31T04:57:08.672Z,26.35
2017-01-31T04:57:38.583Z,26.44
2017-01-31T04:58:08.598Z,26.35
2017-01-31T04:58:38.607Z,26.82
2017-01-31T04:59:08.647Z,26.64
2017-01-31T04:59:38.669Z,26.82
2017-01-31T05:00:08.709Z,27.01
2017-01-31T05:00:38.740Z,26.92
2017-01-31T05:01:08.771Z,26.92
2017-01-31T05:01:38.811Z,26.82
2017-01-31T05:02:08.839Z,27.01
2017-01-31T05:02:38.873Z,26.64
2017-01-31T05:03:08.914Z,26.82
2017-01-31T05:03:39.123Z,26.64
2017-01-31T05:04:08.975Z,26.44
2017-01-31T05:04:39.007Z,26.73
2017-01-31T05:05:09.035Z,26.54
2017-01-31T05:05:39.070Z,26.73
2017-01-31T05:06:09.108Z,26.54
2017-01-31T05:06:39.310Z,26.73
2017-01-31T05:07:09.167Z,26.82
2017-01-31T05:07:39.204Z,26.92
2017-01-31T05:08:09.409Z,26.64
2017-01-31T05:08:39.275Z,26.54
2017-01-31T05:09:09.307Z,26.54
2017-01-31T05:09:39.513Z,26.54
2017-01-31T05:10:09.373Z,26.64
2017-01-31T05:10:39.408Z,26.54
2017-01-31T05:11:09.441Z,26.25
2017-01-31T05:11:39.475Z,26.44
2017-01-31T05:12:09.503Z,26.82
2017-01-31T05:12:39.546Z,26.25
2017-01-31T05:13:09.580Z,26.25
2017-01-31T05:13:39.610Z,26.35
2017-01-31T05:14:09.639Z,26.64
2017-01-31T05:14:39.727Z,26.44
2017-01-31T05:15:09.705Z,26.54
2017-01-31T05:16:39.825Z,26.44
2017-01-31T05:17:09.842Z,26.25
2017-01-31T05:17:39.896Z,26.35
2017-01-31T05:18:09.909Z,26.44
2017-01-31T05:18:39.938Z,26.54
2017-01-31T05:19:09.984Z,26.44
2017-01-31T05:19:40.005Z,26.54
2017-01-31T05:20:10.043Z,26.64
2017-01-31T05:20:40.072Z,26.73
2017-01-31T05:21:10.114Z,26.54
2017-01-31T05:21:40.141Z,26.44
2017-01-31T05:22:10.176Z,26.73
2017-01-31T05:22:40.264Z,26.16
2017-01-31T05:23:10.238Z,26.16
2017-01-31T05:23:40.278Z,26.16
2017-01-31T05:24:10.310Z,26.16
2017-01-31T05:24:40.372Z,26.35
2017-01-31T05:25:10.376Z,26.35
2017-01-31T05:25:40.409Z,26.16
2017-01-31T05:26:10.480Z,26.35
2017-01-31T05:26:40.481Z,26.25
2017-01-31T05:27:10.513Z,26.64
2017-01-31T05:27:40.541Z,26.54
2017-01-31T05:28:10.592Z,26.64
2017-01-31T05:28:40.612Z,26.73
2017-01-31T05:29:10.641Z,26.54
2017-01-31T05:29:40.681Z,26.54
2017-01-31T05:30:10.849Z,26.64
2017-01-31T05:30:40.740Z,26.25
2017-01-31T05:31:10.779Z,26.44
2017-01-31T05:31:40.818Z,26.54
2017-01-31T05:32:10.843Z,26.35
2017-01-31T05:32:40.874Z,26.16
2017-01-31T05:33:10.914Z,26.25
2017-01-31T05:33:40.944Z,26.35
2017-01-31T05:34:10.983Z,26.44
2017-01-31T05:34:41.059Z,26.35
2017-01-31T05:35:11.068Z,26.25
2017-01-31T05:35:41.138Z,26.25
2017-01-31T05:36:11.110Z,26.25
2017-01-31T05:36:41.146Z,26.35
2017-01-31T05:37:11.182Z,26.25
2017-01-31T05:37:41.249Z,26.82
2017-01-31T05:38:11.249Z,26.35
2017-01-31T05:38:41.285Z,26.73
2017-01-31T05:39:11.314Z,26.44
2017-01-31T05:39:41.490Z,26.44
2017-01-31T05:40:11.378Z,26.82
2017-01-31T05:40:41.598Z,26.64
2017-01-31T05:41:11.446Z,26.82
2017-01-31T05:41:41.484Z,26.64
2017-01-31T05:42:11.516Z,26.64
2017-01-31T05:42:41.577Z,26.54
2017-01-31T05:43:11.582Z,26.44
2017-01-31T05:43:41.783Z,26.82
2017-01-31T05:44:11.644Z,26.92
2017-01-31T05:44:41.680Z,26.82
2017-01-31T05:45:11.712Z,26.54
2017-01-31T05:45:41.831Z,26.64
2017-01-31T05:46:11.780Z,26.73
2017-01-31T05:46:41.812Z,26.72
2017-01-31T05:47:12.005Z,26.73
2017-01-31T05:47:42.052Z,26.73
2017-01-31T05:48:11.919Z,26.44
2017-01-31T05:48:41.964Z,26.73
2017-01-31T05:49:11.989Z,26.92
2017-01-31T05:49:42.073Z,26.82
2017-01-31T05:50:12.046Z,26.64
2017-01-31T05:50:42.248Z,26.54
2017-01-31T05:51:12.115Z,26.92
2017-01-31T05:51:42.153Z,26.73
2017-01-31T05:52:12.176Z,26.82
2017-01-31T05:52:42.384Z,26.35
2017-01-31T05:53:12.244Z,26.25
2017-01-31T05:53:42.280Z,26.35
2017-01-31T05:54:12.310Z,26.82
2017-01-31T05:54:42.347Z,26.73
2017-01-31T05:55:12.402Z,26.35
2017-01-31T05:55:42.412Z,26.64
2017-01-31T05:56:12.449Z,26.54
2017-01-31T05:56:42.536Z,26.44
2017-01-31T05:57:12.511Z,26.81
2017-01-31T05:57:42.548Z,26.82
2017-01-31T05:58:13.044Z,26.72
2017-01-31T05:58:42.630Z,27.3
2017-01-31T05:59:12.903Z,26.92
2017-01-31T05:59:42.764Z,27.01
2017-01-31T06:00:12.712Z,27.39
2017-01-31T06:00:42.919Z,27.39
2017-01-31T06:01:12.779Z,27
2017-01-31T06:01:42.986Z,27.3
2017-01-31T06:02:13.017Z,27.3
2017-01-31T06:02:42.880Z,27.11
2017-01-31T06:03:12.916Z,27.86
2017-01-31T06:03:42.948Z,27.67
2017-01-31T06:04:12.982Z,27.57
2017-01-31T06:04:43.020Z,27.67
2017-01-31T06:05:13.048Z,27.58
2017-01-31T06:05:43.081Z,27.78
2017-01-31T06:06:13.124Z,27.09
2017-01-31T06:06:43.323Z,27.38
2017-01-31T06:07:13.197Z,27.2
2017-01-31T06:07:43.221Z,27.3
2017-01-31T06:08:13.247Z,27.01
2017-01-31T06:08:43.284Z,27.49
2017-01-31T06:09:13.319Z,26.92
2017-01-31T06:09:43.518Z,26.81
2017-01-31T06:10:13.406Z,26.62
2017-01-31T06:10:43.417Z,26.44
2017-01-31T06:11:13.447Z,26.82
2017-01-31T06:11:43.512Z,26.92
2017-01-31T06:12:13.512Z,26.44
2017-01-31T06:12:43.549Z,26.44
2017-01-31T06:13:13.582Z,26.35
2017-01-31T06:13:43.624Z,26.73
2017-01-31T06:14:13.646Z,26.82
2017-01-31T06:14:43.685Z,26.44
2017-01-31T06:15:13.717Z,26.92
2017-01-31T06:15:43.762Z,26.53
2017-01-31T06:16:13.827Z,26.82
2017-01-31T06:16:43.896Z,26.82
2017-01-31T06:17:13.852Z,26.82
2017-01-31T06:17:43.883Z,26.9
2017-01-31T06:18:13.918Z,27.2
2017-01-31T06:18:43.953Z,27.11
2017-01-31T06:19:13.982Z,27.28
2017-01-31T06:19:44.015Z,27.19
2017-01-31T06:20:14.218Z,27.01
2017-01-31T06:20:44.082Z,27.28
2017-01-31T06:21:14.116Z,26.9
2017-01-31T06:21:44.357Z,27.38
2017-01-31T06:22:14.184Z,27.28
2017-01-31T06:22:44.214Z,27.01
2017-01-31T06:23:14.251Z,27.19
2017-01-31T06:23:44.282Z,27.28
2017-01-31T06:24:14.320Z,27.09
2017-01-31T06:24:44.350Z,27.3
2017-01-31T06:25:14.392Z,27.3
2017-01-31T06:25:44.417Z,27
2017-01-31T06:26:14.453Z,27.3
2017-01-31T06:26:44.487Z,27.39
2017-01-31T06:27:14.517Z,27.38
2017-01-31T06:27:44.551Z,27.28
2017-01-31T06:28:14.584Z,26.9
2017-01-31T06:28:44.619Z,27.38
2017-01-31T06:29:14.820Z,27.11
2017-01-31T06:29:44.681Z,27.09